createdAt,value
2022-07-27T00:02:01.981Z,100.00
2022-07-27T00:04:32.087Z,100.00
2022-07-27T00:07:01.944Z,100.00
2022-07-27T00:09:30.875Z,100.00
2022-07-27T00:12:01.637Z,100.00
2022-07-27T00:14:33.890Z,100.00
2022-07-27T00:17:02.832Z,100.00
2022-07-27T00:19:34.629Z,100.00
2022-07-27T00:22:04.439Z,100.00
2022-07-27T00:24:32.704Z,100.00
2022-07-27T00:27:02.116Z,100.00
2022-07-27T00:29:33.302Z,100.00
2022-07-27T00:32:01.568Z,100.00
2022-07-27T00:34:31.897Z,100.00
2022-07-27T00:37:02.889Z,100.00
2022-07-27T00:39:33.101Z,100.00
2022-07-27T00:42:06.160Z,100.00
2022-07-27T00:44:37.103Z,100.00
2022-07-27T00:47:06.011Z,100.00
2022-07-27T00:49:37.373Z,100.00
2022-07-27T00:52:08.937Z,100.00
2022-07-27T00:54:37.317Z,100.00
2022-07-27T00:57:07.431Z,100.00
2022-07-27T00:59:37.513Z,100.00
2022-07-27T01:02:11.282Z,100.00
2022-07-27T01:04:41.777Z,100.00
2022-07-27T01:07:15.197Z,100.00
2022-07-27T01:09:58.190Z,100.00
2022-07-27T01:12:29.538Z,100.00
2022-07-27T01:15:01.101Z,100.00
2022-07-27T01:17:32.483Z,100.00
2022-07-27T01:20:03.821Z,100.00
2022-07-27T01:22:34.268Z,100.00
2022-07-27T01:25:04.430Z,100.00
2022-07-27T01:27:34.983Z,100.00
2022-07-27T01:30:03.653Z,100.00
2022-07-27T01:32:33.847Z,100.00
2022-07-27T01:35:04.058Z,100.00
2022-07-27T01:37:33.718Z,100.00
2022-07-27T01:40:05.406Z,100.00
2022-07-27T01:42:35.552Z,100.00
2022-07-27T01:45:04.886Z,100.00
2022-07-27T01:47:34.720Z,100.00
2022-07-27T01:50:03.208Z,100.00
2022-07-27T01:52:33.609Z,100.00
2022-07-27T01:55:04.485Z,100.00
2022-07-27T01:57:33.971Z,100.00
2022-07-27T02:00:04.005Z,100.00
2022-07-27T02:02:33.433Z,100.00
2022-07-27T02:05:05.229Z,100.00
2022-07-27T02:07:36.977Z,100.00
2022-07-27T02:10:06.255Z,100.00
2022-07-27T02:12:36.983Z,100.00
2022-07-27T02:15:08.994Z,100.00
2022-07-27T02:17:45.796Z,100.00
2022-07-27T02:20:16.155Z,100.00
2022-07-27T02:22:48.909Z,100.00
2022-07-27T02:25:20.001Z,100.00
2022-07-27T02:27:49.171Z,100.00
2022-07-27T02:30:19.334Z,100.00
2022-07-27T02:32:49.710Z,100.00
2022-07-27T02:35:18.831Z,100.00
2022-07-27T02:37:51.036Z,100.00
2022-07-27T02:40:20.639Z,100.00
2022-07-27T02:42:49.656Z,100.00
2022-07-27T02:45:20.017Z,100.00
2022-07-27T02:47:50.108Z,100.00
2022-07-27T02:50:18.762Z,100.00
2022-07-27T02:52:50.752Z,100.00
2022-07-27T02:55:19.123Z,100.00
2022-07-27T02:57:47.735Z,100.00
2022-07-27T03:00:17.452Z,100.00
2022-07-27T03:02:50.373Z,100.00
2022-07-27T03:05:20.038Z,100.00
2022-07-27T03:07:51.711Z,100.00
2022-07-27T03:10:20.905Z,100.00
2022-07-27T03:12:49.603Z,100.00
2022-07-27T03:15:17.995Z,100.00
2022-07-27T03:17:49.326Z,100.00
2022-07-27T03:20:20.167Z,100.00
2022-07-27T03:22:49.584Z,100.00
2022-07-27T03:25:21.261Z,100.00
2022-07-27T03:27:49.577Z,100.00
2022-07-27T03:30:18.973Z,100.00
2022-07-27T03:32:48.358Z,100.00
2022-07-27T03:35:19.763Z,100.00
2022-07-27T03:37:48.663Z,100.00
2022-07-27T03:40:18.938Z,100.00
2022-07-27T03:42:49.696Z,100.00
2022-07-27T03:45:18.520Z,100.00
2022-07-27T03:47:47.123Z,100.00
2022-07-27T03:50:16.922Z,100.00
2022-07-27T03:52:46.885Z,100.00
2022-07-27T03:55:16.801Z,100.00
2022-07-27T03:57:50.970Z,100.00
2022-07-27T04:00:19.524Z,100.00
2022-07-27T04:02:48.634Z,100.00
2022-07-27T04:05:18.199Z,100.00
2022-07-27T04:07:49.084Z,100.00
2022-07-27T04:10:23.301Z,100.00
2022-07-27T04:12:56.296Z,100.00
2022-07-27T04:15:25.028Z,100.00
2022-07-27T04:17:57.542Z,100.00
2022-07-27T04:20:26.856Z,100.00
2022-07-27T04:22:56.202Z,100.00
2022-07-27T04:25:27.438Z,100.00
2022-07-27T04:27:58.688Z,100.00
2022-07-27T04:30:28.274Z,100.00
2022-07-27T04:32:58.256Z,100.00
2022-07-27T04:35:26.981Z,100.00
2022-07-27T04:37:58.460Z,100.00
2022-07-27T04:40:33.918Z,100.00
2022-07-27T04:43:07.683Z,100.00
2022-07-27T04:45:38.491Z,100.00
2022-07-27T04:48:08.480Z,100.00
2022-07-27T04:50:41.142Z,100.00
2022-07-27T04:53:11.130Z,100.00
2022-07-27T04:55:43.173Z,100.00
2022-07-27T04:58:15.762Z,100.00
2022-07-27T05:00:44.697Z,100.00
2022-07-27T05:03:14.591Z,100.00
2022-07-27T05:05:49.872Z,100.00
2022-07-27T05:08:20.608Z,100.00
2022-07-27T05:10:50.927Z,100.00
2022-07-27T05:13:22.834Z,100.00
2022-07-27T05:15:54.011Z,100.00
2022-07-27T05:18:25.608Z,100.00
2022-07-27T05:20:54.589Z,100.00
2022-07-27T05:23:25.590Z,100.00
2022-07-27T05:25:54.905Z,100.00
2022-07-27T05:28:24.683Z,100.00
2022-07-27T05:30:53.715Z,100.00
2022-07-27T05:33:23.293Z,100.00
2022-07-27T05:35:54.220Z,100.00
2022-07-27T05:38:22.573Z,100.00
2022-07-27T05:40:53.265Z,100.00
2022-07-27T05:43:25.298Z,100.00
2022-07-27T05:45:53.679Z,100.00
2022-07-27T05:48:22.640Z,100.00
2022-07-27T05:50:52.800Z,100.00
2022-07-27T05:53:21.657Z,100.00
2022-07-27T05:55:59.320Z,100.00
2022-07-27T05:58:31.125Z,100.00
2022-07-27T06:01:00.184Z,100.00
2022-07-27T06:03:30.512Z,100.00
2022-07-27T06:06:19.045Z,100.00
2022-07-27T06:08:49.824Z,100.00
2022-07-27T06:11:20.840Z,100.00
2022-07-27T06:13:51.025Z,100.00
2022-07-27T06:16:20.661Z,100.00
2022-07-27T06:18:50.567Z,100.00
2022-07-27T06:21:18.924Z,100.00
2022-07-27T06:23:48.549Z,100.00
2022-07-27T06:26:18.374Z,100.00
2022-07-27T06:28:47.536Z,100.00
2022-07-27T06:31:17.233Z,99.07
2022-07-27T06:33:46.087Z,98.82
2022-07-27T06:36:20.492Z,97.65
2022-07-27T06:38:48.860Z,92.86
2022-07-27T06:41:19.999Z,93.42
2022-07-27T06:43:49.943Z,90.77
2022-07-27T06:46:19.919Z,90.40
2022-07-27T06:48:50.419Z,88.08
2022-07-27T06:51:20.432Z,88.57
2022-07-27T06:53:48.681Z,87.50
2022-07-27T06:56:17.995Z,86.26
2022-07-27T06:58:46.939Z,84.88
2022-07-27T07:01:16.270Z,83.88
2022-07-27T07:03:48.426Z,83.53
2022-07-27T07:06:17.518Z,83.49
2022-07-27T07:08:47.642Z,83.90
2022-07-27T07:11:16.602Z,82.44
2022-07-27T07:13:45.446Z,82.77
2022-07-27T07:16:15.985Z,82.24
2022-07-27T07:18:52.230Z,81.56
2022-07-27T07:21:22.482Z,80.72
2022-07-27T07:23:52.459Z,80.66
2022-07-27T07:26:21.289Z,76.94
2022-07-27T07:28:49.632Z,77.14
2022-07-27T07:31:20.039Z,76.63
2022-07-27T07:33:52.337Z,77.56
2022-07-27T07:36:21.591Z,77.65
2022-07-27T07:38:51.661Z,75.55
2022-07-27T07:43:50.096Z,72.60
2022-07-27T07:46:19.469Z,72.76
2022-07-27T07:48:48.250Z,73.44
2022-07-27T07:51:19.394Z,73.32
2022-07-27T07:53:49.074Z,73.22
2022-07-27T07:56:20.131Z,72.35
2022-07-27T07:58:53.812Z,72.24
2022-07-27T08:01:26.353Z,71.20
2022-07-27T08:08:54.615Z,69.88
2022-07-27T08:11:29.413Z,69.94
2022-07-27T08:14:00.904Z,69.11
2022-07-27T08:16:30.610Z,68.87
2022-07-27T08:18:59.391Z,66.50
2022-07-27T08:21:35.327Z,68.44
2022-07-27T08:24:06.347Z,67.00
2022-07-27T08:26:36.232Z,67.69
2022-07-27T08:29:11.292Z,66.05
2022-07-27T08:31:52.951Z,66.85
2022-07-27T08:34:23.990Z,65.75
2022-07-27T08:36:55.073Z,64.91
2022-07-27T08:40:20.031Z,65.84
2022-07-27T08:42:14.779Z,65.80
2022-07-27T08:44:43.166Z,63.89
2022-07-27T08:47:12.417Z,64.93
2022-07-27T08:49:43.989Z,63.85
2022-07-27T08:52:14.350Z,62.08
2022-07-27T08:54:43.483Z,61.50
2022-07-27T08:57:14.669Z,62.13
2022-07-27T08:59:43.420Z,61.16
2022-07-27T09:02:15.435Z,62.25
2022-07-27T09:04:44.572Z,61.92
2022-07-27T09:07:28.828Z,62.69
2022-07-27T09:10:00.495Z,60.97
2022-07-27T09:12:29.960Z,62.25
2022-07-27T09:15:07.781Z,60.67
2022-07-27T09:17:52.291Z,62.63
2022-07-27T09:20:22.797Z,64.09
2022-07-27T09:22:56.382Z,64.80
2022-07-27T09:25:52.615Z,65.19
2022-07-27T09:28:31.066Z,67.88
2022-07-27T09:31:07.589Z,70.10
2022-07-27T09:33:45.953Z,73.06
2022-07-27T09:36:16.663Z,74.64
2022-07-27T09:39:11.286Z,72.96
2022-07-27T09:41:42.326Z,72.88
2022-07-27T09:44:31.840Z,76.29
2022-07-27T09:47:02.150Z,76.17
2022-07-27T09:49:32.744Z,76.92
2022-07-27T09:52:04.328Z,77.72
2022-07-27T09:54:45.386Z,77.77
2022-07-27T09:57:14.836Z,78.31
2022-07-27T09:59:43.925Z,79.31
2022-07-27T10:02:14.389Z,79.95
2022-07-27T10:04:43.642Z,80.24
2022-07-27T10:07:13.944Z,79.24
2022-07-27T10:09:47.091Z,79.46
2022-07-27T10:12:16.303Z,81.29
2022-07-27T10:14:47.630Z,80.54
2022-07-27T10:17:18.169Z,81.33
2022-07-27T10:19:50.682Z,81.89
2022-07-27T10:22:51.496Z,81.67
2022-07-27T10:25:22.793Z,80.71
2022-07-27T10:28:09.686Z,80.82
2022-07-27T10:30:38.735Z,81.02
2022-07-27T10:33:16.856Z,80.40
2022-07-27T10:35:45.365Z,78.96
2022-07-27T10:38:18.545Z,77.87
2022-07-27T10:40:49.331Z,77.20
2022-07-27T10:43:23.073Z,75.42
2022-07-27T10:46:01.413Z,74.61
2022-07-27T10:48:38.986Z,73.20
2022-07-27T10:51:12.476Z,72.85
2022-07-27T10:54:11.104Z,71.54
2022-07-27T10:56:47.504Z,69.92
2022-07-27T10:59:16.797Z,70.10
2022-07-27T11:02:01.454Z,68.28
2022-07-27T11:04:30.554Z,67.84
2022-07-27T11:10:10.412Z,68.09
2022-07-27T11:12:43.754Z,68.11
2022-07-27T11:15:12.186Z,68.61
2022-07-27T11:17:58.426Z,69.43
2022-07-27T11:20:31.776Z,71.01
2022-07-27T11:25:59.128Z,71.16
2022-07-27T11:28:32.735Z,74.38
2022-07-27T11:31:03.811Z,74.49
2022-07-27T11:33:33.041Z,73.97
2022-07-27T11:36:02.787Z,75.22
2022-07-27T11:38:46.802Z,75.88
2022-07-27T11:41:47.880Z,77.77
2022-07-27T11:44:17.570Z,79.77
2022-07-27T11:46:47.865Z,81.39
2022-07-27T11:49:20.688Z,82.62
2022-07-27T11:51:51.652Z,82.87
2022-07-27T11:54:23.939Z,82.62
2022-07-27T11:56:55.367Z,83.88
2022-07-27T11:59:27.458Z,84.57
2022-07-27T12:01:59.125Z,84.92
2022-07-27T12:04:28.972Z,85.12
2022-07-27T12:07:07.784Z,85.19
2022-07-27T12:09:40.350Z,86.32
2022-07-27T12:12:15.820Z,86.46
2022-07-27T12:14:48.990Z,86.64
2022-07-27T12:17:29.240Z,87.45
2022-07-27T12:20:08.438Z,87.79
2022-07-27T12:22:45.227Z,88.03
2022-07-27T12:25:29.762Z,87.44
2022-07-27T12:27:59.863Z,88.03
2022-07-27T12:30:32.770Z,88.01
2022-07-27T12:33:08.138Z,88.46
2022-07-27T12:35:46.765Z,88.25
2022-07-27T12:38:17.609Z,83.22
2022-07-27T12:40:49.660Z,81.65
2022-07-27T12:43:19.460Z,78.67
2022-07-27T12:45:50.867Z,76.06
2022-07-27T12:48:22.013Z,74.49
2022-07-27T12:50:59.796Z,75.86
2022-07-27T12:53:28.580Z,78.72
2022-07-27T12:56:01.295Z,82.12
2022-07-27T12:58:30.382Z,84.24
2022-07-27T13:01:00.846Z,88.03
2022-07-27T13:03:33.549Z,91.46
2022-07-27T13:06:10.808Z,96.58
2022-07-27T13:08:44.063Z,99.39
2022-07-27T13:11:13.785Z,100.00
2022-07-27T13:13:43.105Z,100.00
2022-07-27T13:16:16.705Z,100.00
2022-07-27T13:18:46.035Z,100.00
2022-07-27T13:21:16.237Z,100.00
2022-07-27T13:23:47.350Z,100.00
2022-07-27T13:26:15.707Z,100.00
2022-07-27T13:28:43.912Z,100.00
2022-07-27T13:31:12.932Z,100.00
2022-07-27T13:33:44.129Z,100.00
2022-07-27T13:36:14.756Z,100.00
2022-07-27T13:38:44.045Z,100.00
2022-07-27T13:41:13.889Z,100.00
2022-07-27T13:43:42.074Z,100.00
2022-07-27T13:46:11.492Z,100.00
2022-07-27T13:48:40.843Z,100.00
2022-07-27T13:51:14.829Z,100.00
2022-07-27T13:53:46.558Z,100.00
2022-07-27T13:56:25.143Z,100.00
2022-07-27T13:58:55.588Z,100.00
2022-07-27T14:01:28.877Z,100.00
2022-07-27T14:03:59.846Z,100.00
2022-07-27T14:06:30.168Z,100.00
2022-07-27T14:09:01.052Z,100.00
2022-07-27T14:11:30.675Z,100.00
2022-07-27T14:14:17.444Z,100.00
2022-07-27T14:17:11.867Z,100.00
2022-07-27T14:19:58.936Z,100.00
2022-07-27T14:22:47.393Z,100.00
2022-07-27T14:25:34.268Z,100.00
2022-07-27T14:28:21.609Z,100.00
2022-07-27T14:31:10.181Z,100.00
2022-07-27T14:33:56.972Z,100.00
2022-07-27T14:36:44.039Z,100.00
2022-07-27T14:39:32.425Z,100.00
2022-07-27T14:42:22.323Z,100.00
2022-07-27T14:45:10.401Z,100.00
2022-07-27T14:47:57.408Z,100.00
2022-07-27T14:50:44.146Z,100.00
2022-07-27T14:53:30.896Z,100.00
2022-07-27T14:56:19.415Z,100.00
2022-07-27T14:59:06.737Z,100.00
2022-07-27T15:01:54.130Z,100.00
2022-07-27T15:04:41.001Z,100.00
2022-07-27T15:07:28.143Z,100.00
2022-07-27T15:09:57.243Z,100.00
2022-07-27T15:12:33.762Z,100.00
2022-07-27T15:15:08.221Z,100.00
2022-07-27T15:17:37.629Z,100.00
2022-07-27T15:20:13.397Z,100.00
2022-07-27T15:22:41.780Z,100.00
2022-07-27T15:25:12.481Z,100.00
2022-07-27T15:27:42.560Z,100.00
2022-07-27T15:30:11.667Z,100.00
2022-07-27T15:32:39.889Z,100.00
2022-07-27T15:35:09.019Z,100.00
2022-07-27T15:37:39.261Z,100.00
2022-07-27T15:40:26.787Z,100.00
2022-07-27T15:43:03.614Z,100.00
2022-07-27T15:45:32.001Z,100.00
2022-07-27T15:48:00.366Z,100.00
2022-07-27T15:50:29.057Z,100.00
2022-07-27T15:53:00.942Z,100.00
2022-07-27T15:55:29.518Z,100.00
2022-07-27T15:57:59.152Z,100.00
2022-07-27T16:00:27.680Z,100.00
2022-07-27T16:03:14.767Z,100.00
2022-07-27T16:06:08.112Z,100.00
2022-07-27T16:09:00.761Z,100.00
2022-07-27T16:11:45.377Z,100.00
2022-07-27T16:14:30.245Z,100.00
2022-07-27T16:17:31.913Z,100.00
2022-07-27T16:20:28.103Z,100.00
2022-07-27T16:23:45.322Z,100.00
2022-07-27T16:26:50.995Z,100.00
2022-07-27T16:29:55.082Z,100.00
2022-07-27T16:32:42.875Z,100.00
2022-07-27T16:36:11.044Z,100.00
2022-07-27T16:39:03.267Z,100.00
2022-07-27T16:42:24.715Z,100.00
2022-07-27T16:45:37.205Z,100.00
2022-07-27T16:49:13.842Z,100.00
2022-07-27T16:52:28.874Z,100.00
2022-07-27T16:55:27.522Z,100.00
2022-07-27T16:59:03.818Z,100.00
2022-07-27T17:02:21.940Z,100.00
2022-07-27T17:05:38.422Z,100.00
2022-07-27T17:08:11.018Z,100.00
2022-07-27T17:10:39.848Z,100.00
2022-07-27T17:13:13.410Z,100.00
2022-07-27T17:15:42.234Z,100.00
2022-07-27T17:18:12.413Z,100.00
2022-07-27T17:20:41.628Z,100.00
2022-07-27T17:23:12.236Z,100.00
2022-07-27T17:25:40.628Z,100.00
2022-07-27T17:28:09.111Z,100.00
2022-07-27T17:30:38.467Z,100.00
2022-07-27T17:33:07.829Z,100.00
2022-07-27T17:35:40.747Z,100.00
2022-07-27T17:38:09.290Z,100.00
2022-07-27T17:40:37.541Z,100.00
2022-07-27T17:43:05.859Z,100.00
2022-07-27T17:45:34.276Z,100.00
2022-07-27T17:48:02.514Z,100.00
2022-07-27T17:50:30.829Z,100.00
2022-07-27T17:53:01.713Z,100.00
2022-07-27T17:55:30.149Z,100.00
2022-07-27T17:57:58.494Z,100.00
2022-07-27T18:00:27.236Z,100.00
2022-07-27T18:02:55.452Z,100.00
2022-07-27T18:05:24.096Z,100.00
2022-07-27T18:07:54.002Z,100.00
2022-07-27T18:10:27.154Z,100.00
2022-07-27T18:12:55.482Z,100.00
2022-07-27T18:15:41.270Z,100.00
2022-07-27T18:18:09.619Z,100.00
2022-07-27T18:20:38.387Z,100.00
2022-07-27T18:23:08.164Z,100.00
2022-07-27T18:25:38.070Z,100.00
2022-07-27T18:28:06.685Z,100.00
2022-07-27T18:30:35.313Z,100.00
2022-07-27T18:33:03.493Z,100.00
2022-07-27T18:35:31.659Z,100.00
2022-07-27T18:38:04.608Z,100.00
2022-07-27T18:40:33.028Z,100.00
2022-07-27T18:43:03.214Z,100.00
2022-07-27T18:45:34.659Z,100.00
2022-07-27T18:48:03.790Z,100.00
2022-07-27T18:52:19.255Z,100.00
2022-07-27T18:54:47.434Z,100.00
2022-07-27T18:57:15.772Z,100.00
2022-07-27T18:59:44.247Z,100.00
2022-07-27T19:02:12.694Z,100.00
2022-07-27T19:04:41.175Z,100.00
2022-07-27T19:07:10.022Z,100.00
2022-07-27T19:09:39.813Z,100.00
2022-07-27T19:12:09.826Z,100.00
2022-07-27T19:14:39.030Z,100.00
2022-07-27T19:17:08.076Z,100.00
2022-07-27T19:19:42.920Z,100.00
2022-07-27T19:22:13.174Z,100.00
2022-07-27T19:24:43.345Z,100.00
2022-07-27T19:27:15.365Z,100.00
2022-07-27T19:29:43.943Z,100.00
2022-07-27T19:32:12.774Z,100.00
2022-07-27T19:34:40.957Z,100.00
2022-07-27T19:37:09.432Z,100.00
2022-07-27T19:39:57.101Z,100.00
2022-07-27T19:42:27.422Z,100.00
2022-07-27T19:44:55.632Z,100.00
2022-07-27T19:47:25.378Z,100.00
2022-07-27T19:49:53.704Z,100.00
2022-07-27T19:52:22.120Z,100.00
2022-07-27T19:54:50.311Z,100.00
2022-07-27T19:57:18.439Z,100.00
2022-07-27T19:59:55.772Z,100.00
2022-07-27T20:02:25.544Z,100.00
2022-07-27T20:04:53.855Z,100.00
2022-07-27T20:07:22.062Z,100.00
2022-07-27T20:09:50.258Z,100.00
2022-07-27T20:12:18.767Z,100.00
2022-07-27T20:14:48.321Z,100.00
2022-07-27T20:17:17.539Z,100.00
2022-07-27T20:19:46.785Z,100.00
2022-07-27T20:22:16.592Z,100.00
2022-07-27T20:24:44.961Z,100.00
2022-07-27T20:27:13.194Z,100.00
2022-07-27T20:29:41.376Z,100.00
2022-07-27T20:32:11.607Z,100.00
2022-07-27T20:34:39.846Z,100.00
2022-07-27T20:37:08.186Z,100.00
2022-07-27T20:39:36.283Z,100.00
2022-07-27T20:42:04.824Z,100.00
2022-07-27T20:44:33.068Z,100.00
2022-07-27T20:47:01.178Z,100.00
2022-07-27T20:49:30.819Z,100.00
2022-07-27T20:51:59.040Z,100.00
2022-07-27T20:54:29.364Z,100.00
2022-07-27T20:56:57.917Z,100.00
2022-07-27T20:59:26.091Z,100.00
2022-07-27T21:01:54.641Z,100.00
2022-07-27T21:04:24.053Z,100.00
2022-07-27T21:06:54.274Z,100.00
2022-07-27T21:09:22.593Z,100.00
2022-07-27T21:11:51.148Z,100.00
2022-07-27T21:14:19.361Z,100.00
2022-07-27T21:16:47.499Z,100.00
2022-07-27T21:19:16.293Z,100.00
2022-07-27T21:21:44.970Z,100.00
2022-07-27T21:24:17.420Z,100.00
2022-07-27T21:26:48.541Z,100.00
2022-07-27T21:29:17.154Z,100.00
2022-07-27T21:31:48.171Z,100.00
2022-07-27T21:34:18.583Z,100.00
2022-07-27T21:36:47.412Z,100.00
2022-07-27T21:39:18.048Z,100.00
2022-07-27T21:41:46.536Z,100.00
2022-07-27T21:44:15.174Z,100.00
2022-07-27T21:46:43.647Z,100.00
2022-07-27T21:49:13.286Z,100.00
2022-07-27T21:51:41.491Z,100.00
2022-07-27T21:54:09.946Z,100.00
2022-07-27T21:56:41.918Z,100.00
2022-07-27T21:59:11.428Z,100.00
2022-07-27T22:01:39.712Z,100.00
2022-07-27T22:04:07.938Z,100.00
2022-07-27T22:06:36.189Z,100.00
2022-07-27T22:09:04.609Z,100.00
2022-07-27T22:11:32.807Z,100.00
2022-07-27T22:14:02.369Z,100.00
2022-07-27T22:16:30.681Z,100.00
2022-07-27T22:18:58.940Z,100.00
2022-07-27T22:21:28.367Z,100.00
2022-07-27T22:23:56.714Z,100.00
2022-07-27T22:26:24.897Z,100.00
2022-07-27T22:28:53.138Z,100.00
2022-07-27T22:31:23.531Z,100.00
2022-07-27T22:33:51.878Z,100.00
2022-07-27T22:36:20.085Z,100.00
2022-07-27T22:38:48.462Z,100.00
2022-07-27T22:41:16.737Z,100.00
2022-07-27T22:43:44.870Z,100.00
2022-07-27T22:46:13.092Z,100.00
2022-07-27T22:48:42.711Z,100.00
2022-07-27T22:51:11.024Z,100.00
2022-07-27T22:53:39.446Z,100.00
2022-07-27T22:56:07.723Z,100.00
2022-07-27T22:58:35.924Z,100.00
2022-07-27T23:01:04.122Z,100.00
2022-07-27T23:03:32.323Z,100.00
2022-07-27T23:06:01.859Z,100.00
2022-07-27T23:08:29.950Z,100.00
2022-07-27T23:10:58.129Z,100.00
2022-07-27T23:13:26.232Z,100.00
2022-07-27T23:16:02.219Z,100.00
2022-07-27T23:18:30.562Z,100.00
2022-07-27T23:20:58.686Z,100.00
2022-07-27T23:23:28.741Z,100.00
2022-07-27T23:26:03.906Z,100.00
2022-07-27T23:28:32.586Z,100.00
2022-07-27T23:31:01.841Z,100.00
2022-07-27T23:33:30.419Z,100.00
2022-07-27T23:35:58.656Z,100.00
2022-07-27T23:38:28.678Z,100.00
2022-07-27T23:40:56.859Z,100.00
2022-07-27T23:43:27.671Z,100.00
2022-07-27T23:45:55.808Z,100.00
2022-07-27T23:48:25.184Z,100.00
2022-07-27T23:50:54.089Z,100.00
2022-07-27T23:53:22.669Z,100.00
2022-07-27T23:55:52.485Z,100.00
2022-07-27T23:58:20.601Z,100.00
